createdAt,value
2022-09-09T00:00:58.385Z,31.1
2022-09-09T00:02:00.305Z,31.3
2022-09-09T00:03:03.216Z,31.1
2022-09-09T00:04:06.158Z,31.2
2022-09-09T00:05:08.629Z,31.2
2022-09-09T00:06:11.102Z,31
2022-09-09T00:07:13.573Z,31.5
2022-09-09T00:08:15.781Z,31.2
2022-09-09T00:09:18.308Z,31.3
2022-09-09T00:10:20.513Z,31.4
2022-09-09T00:11:22.436Z,31.2
2022-09-09T00:12:28.624Z,31.5
2022-09-09T00:13:31.126Z,31.2
2022-09-09T00:14:33.602Z,31.5
2022-09-09T00:15:35.854Z,31.5
2022-09-09T00:16:38.346Z,31.3
2022-09-09T00:17:40.831Z,31.2
2022-09-09T00:18:43.356Z,31.5
2022-09-09T00:19:45.587Z,31.4
2022-09-09T00:20:48.068Z,31.3
2022-09-09T00:21:50.016Z,31.5
2022-09-09T00:22:51.689Z,31.3
2022-09-09T00:23:54.183Z,31.3
2022-09-09T00:24:56.698Z,31.4
2022-09-09T00:25:59.186Z,31.4
2022-09-09T00:27:01.367Z,31.5
2022-09-09T00:28:03.870Z,31.2
2022-09-09T00:29:06.073Z,31.4
2022-09-09T00:30:08.308Z,31.4
2022-09-09T00:31:10.464Z,31.2
2022-09-09T00:32:12.722Z,31.2
2022-09-09T00:33:15.144Z,31.3
2022-09-09T00:34:17.114Z,31.1
2022-09-09T00:35:19.030Z,31.2
2022-09-09T00:36:20.951Z,31
2022-09-09T00:37:23.159Z,31.2
2022-09-09T00:38:25.640Z,31.1
2022-09-09T00:39:27.857Z,31.1
2022-09-09T00:40:29.901Z,31.1
2022-09-09T00:41:32.399Z,30.9
2022-09-09T00:42:34.579Z,31.1
2022-09-09T00:43:36.527Z,31.2
2022-09-09T00:44:39.042Z,31.2
2022-09-09T00:45:41.523Z,30.9
2022-09-09T00:46:44.191Z,30.9
2022-09-09T00:47:46.400Z,31
2022-09-09T00:48:48.607Z,30.7
2022-09-09T00:49:51.118Z,30.9
2022-09-09T00:50:53.337Z,30.9
2022-09-09T00:51:55.813Z,30.9
2022-09-09T00:52:58.283Z,31
2022-09-09T00:54:00.773Z,30.9
2022-09-09T00:55:03.240Z,31
2022-09-09T00:56:05.190Z,31
2022-09-09T00:57:07.108Z,31
2022-09-09T00:58:09.583Z,30.8
2022-09-09T00:59:12.053Z,30.6
2022-09-09T01:00:14.548Z,30.8
2022-09-09T01:01:16.538Z,30.6
2022-09-09T01:02:19.382Z,30.9
2022-09-09T01:03:22.234Z,30.8
2022-09-09T01:04:24.702Z,30.8
2022-09-09T01:05:26.942Z,30.9
2022-09-09T01:06:29.142Z,30.7
2022-09-09T01:07:31.344Z,30.9
2022-09-09T01:08:33.561Z,30.8
2022-09-09T01:09:36.908Z,30.9
2022-09-09T01:10:39.104Z,31
2022-09-09T01:11:41.600Z,30.9
2022-09-09T01:12:44.081Z,30.6
2022-09-09T01:13:46.625Z,30.9
2022-09-09T01:14:48.830Z,30.6
2022-09-09T01:15:51.072Z,30.7
2022-09-09T01:16:53.613Z,30.7
2022-09-09T01:17:56.492Z,30.8
2022-09-09T01:18:58.972Z,30.7
2022-09-09T01:20:01.168Z,30.6
2022-09-09T01:21:03.714Z,30.9
2022-09-09T01:22:06.196Z,30.7
2022-09-09T01:23:08.399Z,30.6
2022-09-09T01:24:10.602Z,30.9
2022-09-09T01:25:13.076Z,30.9
2022-09-09T01:26:15.553Z,30.6
2022-09-09T01:27:17.497Z,30.8
2022-09-09T01:28:19.962Z,30.6
2022-09-09T01:29:22.168Z,30.7
2022-09-09T01:30:24.643Z,30.8
2022-09-09T01:31:26.704Z,30.7
2022-09-09T01:32:29.230Z,30.8
2022-09-09T01:33:31.731Z,30.7
2022-09-09T01:34:34.216Z,30.7
2022-09-09T01:35:36.696Z,30.6
2022-09-09T01:36:39.227Z,30.7
2022-09-09T01:37:41.696Z,30.7
2022-09-09T01:38:44.171Z,30.6
2022-09-09T01:39:46.422Z,30.9
2022-09-09T01:40:49.202Z,30.7
2022-09-09T01:41:51.669Z,30.6
2022-09-09T01:42:54.170Z,30.7
2022-09-09T01:43:56.340Z,30.7
2022-09-09T01:44:58.810Z,30.6
2022-09-09T01:46:01.054Z,30.7
2022-09-09T01:47:04.150Z,30.8
2022-09-09T01:48:06.628Z,30.6
2022-09-09T01:49:08.878Z,30.9
2022-09-09T01:50:10.779Z,30.8
2022-09-09T01:51:13.263Z,30.6
2022-09-09T01:52:15.785Z,30.6
2022-09-09T01:53:17.983Z,30.7
2022-09-09T01:54:20.170Z,30.5
2022-09-09T01:55:22.375Z,30.6
2022-09-09T01:56:24.860Z,30.7
2022-09-09T01:57:27.339Z,30.5
2022-09-09T01:58:30.570Z,30.5
2022-09-09T01:59:32.861Z,30.7
2022-09-09T02:00:35.060Z,30.6
2022-09-09T02:01:37.647Z,30.7
2022-09-09T02:02:40.395Z,30.8
2022-09-09T02:03:43.192Z,30.6
2022-09-09T02:04:45.398Z,30.7
2022-09-09T02:05:47.332Z,30.8
2022-09-09T02:06:49.821Z,30.8
2022-09-09T02:07:52.063Z,30.8
2022-09-09T02:08:53.965Z,30.5
2022-09-09T02:09:56.447Z,30.6
2022-09-09T02:10:58.929Z,30.4
2022-09-09T02:12:01.136Z,30.4
2022-09-09T02:13:03.345Z,30.6
2022-09-09T02:14:05.561Z,30.7
2022-09-09T02:15:08.037Z,30.5
2022-09-09T02:16:10.576Z,30.7
2022-09-09T02:17:13.298Z,30.3
2022-09-09T02:18:15.523Z,30.6
2022-09-09T02:19:17.996Z,30.7
2022-09-09T02:20:20.209Z,30.8
2022-09-09T02:21:22.395Z,30.5
2022-09-09T02:22:24.886Z,30.7
2022-09-09T02:23:27.429Z,30.6
2022-09-09T02:24:29.297Z,30.4
2022-09-09T02:25:31.773Z,30.5
2022-09-09T02:26:33.972Z,30.6
2022-09-09T02:27:36.498Z,30.7
2022-09-09T02:28:38.990Z,30.7
2022-09-09T02:29:41.492Z,30.7
2022-09-09T02:30:43.747Z,30.5
2022-09-09T02:31:46.369Z,30.6
2022-09-09T02:32:48.839Z,30.6
2022-09-09T02:33:51.083Z,30.6
2022-09-09T02:34:53.273Z,30.5
2022-09-09T02:35:55.465Z,30.6
2022-09-09T02:36:57.378Z,30.6
2022-09-09T02:37:59.589Z,30.7
2022-09-09T02:39:02.104Z,30.7
2022-09-09T02:40:04.448Z,30.6
2022-09-09T02:41:07.238Z,30.5
2022-09-09T02:42:09.478Z,30.5
2022-09-09T02:43:11.672Z,30.6
2022-09-09T02:44:14.145Z,30.7
2022-09-09T02:45:16.366Z,30.5
2022-09-09T02:46:18.945Z,30.4
2022-09-09T02:47:21.796Z,30.5
2022-09-09T02:48:24.005Z,30.6
2022-09-09T02:49:26.504Z,30.5
2022-09-09T02:50:28.698Z,30.6
2022-09-09T02:51:30.907Z,30.8
2022-09-09T02:52:33.430Z,30.6
2022-09-09T02:53:35.634Z,30.6
2022-09-09T02:54:38.142Z,30.5
2022-09-09T02:55:40.658Z,30.6
2022-09-09T02:56:42.867Z,30.5
2022-09-09T02:57:45.077Z,30.6
2022-09-09T02:58:46.992Z,30.3
2022-09-09T02:59:49.463Z,30.4
2022-09-09T03:00:52.014Z,30.4
2022-09-09T03:01:54.877Z,30.5
2022-09-09T03:02:57.604Z,30.7
2022-09-09T03:04:00.084Z,30.5
2022-09-09T03:05:02.296Z,30.5
2022-09-09T03:06:04.548Z,30.6
2022-09-09T03:07:06.743Z,30.6
2022-09-09T03:08:09.219Z,30.7
2022-09-09T03:09:11.703Z,30.3
2022-09-09T03:10:14.212Z,30.4
2022-09-09T03:11:16.697Z,30.5
2022-09-09T03:12:19.180Z,30.4
2022-09-09T03:13:21.665Z,30.4
2022-09-09T03:14:24.146Z,30.5
2022-09-09T03:15:26.642Z,30.6
2022-09-09T03:16:29.202Z,30.6
2022-09-09T03:17:31.989Z,30.6
2022-09-09T03:18:34.280Z,30.5
2022-09-09T03:19:37.530Z,30.5
2022-09-09T03:20:39.753Z,30.4
2022-09-09T03:21:41.928Z,30.6
2022-09-09T03:22:44.421Z,30.3
2022-09-09T03:23:46.609Z,30.6
2022-09-09T03:24:49.081Z,30.4
2022-09-09T03:25:51.599Z,30.4
2022-09-09T03:26:53.809Z,30.5
2022-09-09T03:27:56.009Z,30.3
2022-09-09T03:28:57.918Z,30.5
2022-09-09T03:30:00.706Z,30.4
2022-09-09T03:31:02.616Z,30.4
2022-09-09T03:32:05.226Z,30.5
2022-09-09T03:33:08.126Z,30.4
2022-09-09T03:34:10.606Z,30.6
2022-09-09T03:35:13.072Z,30.3
2022-09-09T03:36:15.283Z,30.2
2022-09-09T03:37:17.219Z,30.4
2022-09-09T03:38:19.446Z,30.3
2022-09-09T03:39:21.927Z,30.4
2022-09-09T03:40:24.401Z,30.3
2022-09-09T03:41:26.640Z,30.4
2022-09-09T03:42:28.834Z,30.5
2022-09-09T03:43:31.314Z,30.6
2022-09-09T03:44:33.520Z,30.5
2022-09-09T03:45:35.752Z,30.7
2022-09-09T03:46:38.477Z,30.4
2022-09-09T03:47:40.696Z,30.6
2022-09-09T03:48:43.171Z,30.4
2022-09-09T03:49:45.648Z,30.4
2022-09-09T03:50:47.855Z,30.5
2022-09-09T03:51:50.350Z,30.6
2022-09-09T03:52:52.821Z,30.5
2022-09-09T03:53:55.320Z,30.5
2022-09-09T03:54:57.791Z,30.3
2022-09-09T03:56:00.000Z,30.4
2022-09-09T03:57:02.713Z,30.3
2022-09-09T03:58:04.884Z,30.3
2022-09-09T03:59:07.356Z,30.3
2022-09-09T04:00:09.586Z,30.4
2022-09-09T04:01:11.607Z,30.7
2022-09-09T04:02:13.962Z,30.5
2022-09-09T04:03:16.859Z,30.5
2022-09-09T04:04:19.330Z,30.6
2022-09-09T04:05:21.803Z,30.4
2022-09-09T04:06:24.283Z,30.6
2022-09-09T04:07:26.798Z,30.5
2022-09-09T04:08:29.279Z,30.5
2022-09-09T04:09:31.848Z,30.5
2022-09-09T04:10:34.330Z,30.5
2022-09-09T04:11:36.562Z,30.5
2022-09-09T04:12:39.076Z,30.4
2022-09-09T04:13:41.273Z,30.5
2022-09-09T04:14:43.743Z,30.4
2022-09-09T04:15:46.216Z,30.3
2022-09-09T04:16:48.729Z,30.2
2022-09-09T04:17:50.939Z,30.6
2022-09-09T04:18:53.435Z,30.5
2022-09-09T04:19:55.960Z,30.4
2022-09-09T04:20:58.431Z,30.4
2022-09-09T04:22:00.918Z,30.5
2022-09-09T04:23:03.419Z,30.6
2022-09-09T04:24:05.635Z,30.6
2022-09-09T04:25:08.124Z,30.4
2022-09-09T04:26:10.335Z,30.4
2022-09-09T04:27:12.807Z,30.3
2022-09-09T04:28:15.352Z,30.5
2022-09-09T04:29:17.543Z,30.7
2022-09-09T04:30:20.030Z,30.3
2022-09-09T04:31:22.571Z,30.6
2022-09-09T04:32:25.673Z,30.5
2022-09-09T04:33:27.862Z,30.3
2022-09-09T04:34:30.365Z,30.6
2022-09-09T04:35:32.845Z,30.5
2022-09-09T04:36:35.315Z,30.4
2022-09-09T04:37:37.789Z,30.3
2022-09-09T04:38:40.010Z,30.6
2022-09-09T04:39:42.535Z,30.5
2022-09-09T04:40:45.438Z,30.5
2022-09-09T04:41:47.361Z,30.7
2022-09-09T04:42:49.830Z,30.3
2022-09-09T04:43:52.067Z,30.5
2022-09-09T04:44:54.539Z,30.3
2022-09-09T04:45:56.873Z,30.4
2022-09-09T04:46:59.737Z,30.4
2022-09-09T04:48:01.959Z,30.5
2022-09-09T04:49:04.137Z,30.4
2022-09-09T04:50:06.358Z,30.3
2022-09-09T04:51:08.825Z,30.4
2022-09-09T04:52:11.028Z,30.6
2022-09-09T04:53:13.494Z,30.3
2022-09-09T04:54:16.016Z,30.2
2022-09-09T04:55:17.640Z,30.2
2022-09-09T04:56:20.136Z,30.1
2022-09-09T04:57:21.763Z,30.5
2022-09-09T04:58:24.244Z,30.4
2022-09-09T04:59:26.755Z,30.3
2022-09-09T05:00:29.252Z,30.3
2022-09-09T05:01:32.038Z,30.3
2022-09-09T05:02:34.561Z,30.3
2022-09-09T05:03:37.054Z,30.3
2022-09-09T05:04:38.423Z,30.4
2022-09-09T05:05:40.646Z,30.4
2022-09-09T05:06:42.835Z,30.5
2022-09-09T05:07:45.329Z,30.4
2022-09-09T05:08:47.543Z,30.6
2022-09-09T05:09:49.746Z,30.3
2022-09-09T05:10:51.946Z,30.4
2022-09-09T05:11:54.139Z,30.4
2022-09-09T05:12:56.622Z,30.3
2022-09-09T05:13:58.799Z,30.4
2022-09-09T05:15:01.323Z,30.5
2022-09-09T05:16:03.287Z,30.4
2022-09-09T05:17:06.252Z,30.5
2022-09-09T05:18:08.444Z,30.3
2022-09-09T05:19:10.920Z,30.5
2022-09-09T05:20:16.843Z,30.4
2022-09-09T05:21:18.111Z,30.3
2022-09-09T05:22:20.307Z,30.3
2022-09-09T05:23:22.781Z,30.4
2022-09-09T05:24:25.252Z,30.3
2022-09-09T05:25:27.170Z,30.4
2022-09-09T05:26:29.353Z,30.2
2022-09-09T05:27:30.796Z,30.4
2022-09-09T05:28:33.313Z,30.4
2022-09-09T05:29:36.055Z,30.4
2022-09-09T05:30:38.569Z,30.4
2022-09-09T05:31:41.103Z,30.2
2022-09-09T05:32:44.226Z,30.4
2022-09-09T05:33:46.404Z,30.5
2022-09-09T05:34:48.895Z,30.3
2022-09-09T05:35:51.100Z,30.4
2022-09-09T05:36:53.610Z,30.4
2022-09-09T05:37:55.805Z,30.4
2022-09-09T05:38:58.273Z,30.3
2022-09-09T05:40:00.322Z,30.5
2022-09-09T05:41:03.093Z,30.5
2022-09-09T05:42:05.292Z,30.4
2022-09-09T05:43:07.514Z,30.5
2022-09-09T05:44:09.721Z,30.5
2022-09-09T05:45:11.920Z,30.4
2022-09-09T05:46:14.233Z,30.4
2022-09-09T05:47:16.944Z,30.3
2022-09-09T05:48:19.435Z,30.4
2022-09-09T05:49:21.915Z,30.4
2022-09-09T05:50:23.844Z,30.4
2022-09-09T05:51:31.466Z,30.2
2022-09-09T05:52:33.709Z,30.4
2022-09-09T05:53:36.190Z,30.4
2022-09-09T05:54:38.436Z,30.4
2022-09-09T05:55:40.909Z,30.4
2022-09-09T05:56:43.406Z,30.2
2022-09-09T05:57:49.588Z,30.4
2022-09-09T05:58:52.077Z,30.2
2022-09-09T05:59:54.271Z,30.3
2022-09-09T06:00:56.542Z,30.5
2022-09-09T06:01:59.117Z,30.1
2022-09-09T06:03:01.967Z,30.4
2022-09-09T06:04:05.044Z,30.2
2022-09-09T06:05:07.228Z,30.6
2022-09-09T06:06:09.703Z,30.4
2022-09-09T06:07:12.175Z,30.5
2022-09-09T06:08:14.392Z,30.4
2022-09-09T06:09:16.864Z,30.5
2022-09-09T06:10:19.061Z,30.3
2022-09-09T06:11:21.543Z,30.4
2022-09-09T06:12:23.479Z,30.3
2022-09-09T06:13:25.149Z,30.4
2022-09-09T06:14:27.382Z,30.2
2022-09-09T06:15:29.851Z,30.4
2022-09-09T06:16:32.534Z,30.3
2022-09-09T06:17:35.657Z,30.4
2022-09-09T06:18:38.221Z,30.2
2022-09-09T06:19:40.453Z,30.3
2022-09-09T06:20:42.931Z,30.4
2022-09-09T06:21:45.403Z,30.2
2022-09-09T06:22:47.881Z,30.5
2022-09-09T06:23:50.371Z,30.3
2022-09-09T06:24:52.919Z,30.3
2022-09-09T06:25:54.567Z,30.2
2022-09-09T06:26:56.778Z,30.2
2022-09-09T06:27:59.277Z,30.1
2022-09-09T06:29:01.752Z,30.4
2022-09-09T06:30:04.249Z,30.2
2022-09-09T06:31:06.515Z,30.4
2022-09-09T06:32:08.709Z,30.4
2022-09-09T06:33:11.231Z,30.4
2022-09-09T06:34:13.406Z,30.2
2022-09-09T06:35:15.333Z,30.3
2022-09-09T06:36:17.823Z,30.3
2022-09-09T06:37:20.180Z,30.2
2022-09-09T06:38:22.713Z,30.2
2022-09-09T06:39:24.948Z,30.3
2022-09-09T06:40:27.416Z,30.5
2022-09-09T06:41:29.629Z,30.4
2022-09-09T06:42:32.099Z,30.4
2022-09-09T06:43:34.328Z,30.3
2022-09-09T06:44:36.514Z,30.3
2022-09-09T06:45:38.775Z,30.2
2022-09-09T06:46:41.088Z,30.1
2022-09-09T06:47:43.837Z,30.2
2022-09-09T06:48:46.353Z,30.3
2022-09-09T06:49:48.613Z,30.4
2022-09-09T06:50:50.543Z,30.3
2022-09-09T06:51:54.035Z,30.2
2022-09-09T06:52:56.686Z,30.1
2022-09-09T06:53:59.160Z,30.2
2022-09-09T06:55:01.375Z,30.3
2022-09-09T06:56:03.295Z,30.3
2022-09-09T06:57:15.634Z,30.3
2022-09-09T06:58:10.786Z,30.3
2022-09-09T06:59:13.003Z,30.3
2022-09-09T07:00:15.221Z,30.3
2022-09-09T07:01:17.046Z,30.4
2022-09-09T07:02:19.477Z,30.3
2022-09-09T07:03:22.206Z,30.2
2022-09-09T07:04:24.450Z,30.4
2022-09-09T07:05:26.115Z,30.3
2022-09-09T07:06:28.039Z,30.1
2022-09-09T07:07:29.694Z,30.3
2022-09-09T07:08:31.903Z,30.2
2022-09-09T07:09:34.652Z,30.3
2022-09-09T07:10:37.157Z,30.3
2022-09-09T07:11:39.630Z,30.3
2022-09-09T07:12:41.849Z,30.4
2022-09-09T07:13:44.328Z,30.3
2022-09-09T07:14:46.563Z,30.4
2022-09-09T07:15:49.081Z,30.6
2022-09-09T07:16:52.644Z,30.3
2022-09-09T07:17:59.227Z,30.5
2022-09-09T07:19:01.731Z,30.4
2022-09-09T07:20:04.238Z,30.5
2022-09-09T07:21:06.138Z,30.4
2022-09-09T07:22:08.614Z,30.5
2022-09-09T07:23:10.828Z,30.3
2022-09-09T07:24:13.705Z,30.3
2022-09-09T07:25:16.049Z,30.3
2022-09-09T07:26:18.592Z,30.4
2022-09-09T07:27:20.525Z,30.2
2022-09-09T07:28:22.773Z,30.3
2022-09-09T07:29:25.249Z,30.4
2022-09-09T07:30:28.001Z,30.4
2022-09-09T07:31:30.715Z,30.4
2022-09-09T07:32:33.714Z,30.3
2022-09-09T07:33:36.263Z,30.5
2022-09-09T07:34:39.018Z,30.2
2022-09-09T07:35:41.533Z,30.5
2022-09-09T07:36:43.458Z,30.5
2022-09-09T07:37:50.281Z,30.3
2022-09-09T07:38:50.929Z,30.4
2022-09-09T07:39:53.197Z,30.3
2022-09-09T07:40:56.036Z,30.5
2022-09-09T07:41:58.554Z,30.5
2022-09-09T07:43:00.781Z,30.5
2022-09-09T07:44:02.709Z,30.4
2022-09-09T07:45:05.192Z,30.3
2022-09-09T07:46:07.460Z,30.5
2022-09-09T07:47:09.985Z,30.3
2022-09-09T07:48:12.476Z,30.4
2022-09-09T07:49:14.954Z,30.3
2022-09-09T07:50:16.893Z,30.4
2022-09-09T07:51:19.403Z,30.2
2022-09-09T07:52:21.982Z,30.3
2022-09-09T07:53:24.495Z,30.4
2022-09-09T07:54:26.715Z,30.4
2022-09-09T07:55:29.207Z,30.5
2022-09-09T07:56:33.484Z,30.4
2022-09-09T07:58:53.144Z,30.4
2022-09-09T07:59:55.635Z,30.5
2022-09-09T08:00:58.110Z,30.3
2022-09-09T08:02:00.680Z,30.2
2022-09-09T08:03:03.277Z,30.4
2022-09-09T08:04:05.707Z,30.2
2022-09-09T08:05:08.182Z,30.3
2022-09-09T08:06:10.656Z,30.4
2022-09-09T08:07:12.888Z,30.3
2022-09-09T08:08:15.366Z,30.4
2022-09-09T08:09:17.297Z,30.4
2022-09-09T08:10:19.810Z,30.3
2022-09-09T08:11:21.813Z,30.3
2022-09-09T08:12:24.285Z,30.3
2022-09-09T08:13:26.772Z,30.1
2022-09-09T08:14:29.126Z,30.3
2022-09-09T08:15:31.605Z,30.3
2022-09-09T08:16:34.086Z,30.1
2022-09-09T08:17:36.326Z,30.3
2022-09-09T08:18:38.525Z,30.2
2022-09-09T08:19:41.018Z,30.3
2022-09-09T08:20:43.488Z,30.2
2022-09-09T08:21:45.427Z,30.4
2022-09-09T08:22:47.717Z,30.5
2022-09-09T08:23:50.888Z,30.6
2022-09-09T08:24:54.928Z,30.2
2022-09-09T08:25:57.115Z,30.5
2022-09-09T08:26:59.602Z,30.3
2022-09-09T08:28:02.301Z,30.4
2022-09-09T08:29:04.505Z,30.4
2022-09-09T08:30:07.013Z,30.4
2022-09-09T08:31:09.571Z,30.4
2022-09-09T08:32:12.711Z,30.3
2022-09-09T08:33:15.227Z,30.4
2022-09-09T08:34:17.709Z,30.4
2022-09-09T08:35:19.973Z,30.4
2022-09-09T08:36:22.181Z,30.2
2022-09-09T08:37:24.707Z,30.3
2022-09-09T08:38:26.996Z,30.4
2022-09-09T08:39:29.474Z,30.3
2022-09-09T08:40:32.110Z,30.2
2022-09-09T08:41:34.333Z,30.3
2022-09-09T08:42:36.808Z,30.3
2022-09-09T08:43:38.746Z,30.2
2022-09-09T08:44:42.664Z,30.4
2022-09-09T08:45:45.967Z,30.3
2022-09-09T08:46:48.268Z,30.4
2022-09-09T08:47:50.923Z,30.3
2022-09-09T08:48:53.134Z,30.3
2022-09-09T08:49:55.350Z,30.4
2022-09-09T08:50:57.888Z,30.4
2022-09-09T08:52:00.368Z,30.2
2022-09-09T08:53:02.897Z,30.3
2022-09-09T08:54:05.436Z,30.4
2022-09-09T08:55:07.946Z,30.4
2022-09-09T08:56:10.158Z,30.4
2022-09-09T08:57:12.723Z,30.5
2022-09-09T08:58:14.939Z,30.4
2022-09-09T08:59:17.414Z,30.4
2022-09-09T09:00:19.611Z,30.3
2022-09-09T09:01:22.206Z,30.3
2022-09-09T09:02:24.475Z,30.3
2022-09-09T09:03:27.168Z,30.7
2022-09-09T09:04:29.467Z,30.4
2022-09-09T09:05:32.365Z,30.3
2022-09-09T09:06:34.688Z,30.2
2022-09-09T09:07:36.590Z,30.3
2022-09-09T09:08:39.091Z,30.4
2022-09-09T09:09:41.638Z,30.4
2022-09-09T09:10:43.911Z,30.3
2022-09-09T09:11:46.144Z,30.4
2022-09-09T09:12:48.338Z,30.3
2022-09-09T09:13:50.546Z,30.5
2022-09-09T09:14:53.054Z,30.3
2022-09-09T09:15:55.275Z,30.3
2022-09-09T09:16:57.169Z,30.3
2022-09-09T09:17:59.368Z,30.4
2022-09-09T09:19:01.282Z,30.5
2022-09-09T09:20:03.805Z,30.1
2022-09-09T09:21:05.746Z,30.5
2022-09-09T09:22:07.971Z,30.3
2022-09-09T09:23:10.456Z,30.5
2022-09-09T09:24:12.650Z,30.6
2022-09-09T09:25:19.143Z,30.5
2022-09-09T09:26:21.441Z,30.5
2022-09-09T09:27:23.657Z,30.1
2022-09-09T09:28:25.890Z,30.3
2022-09-09T09:29:28.403Z,30.4
2022-09-09T09:30:30.903Z,30
2022-09-09T09:31:33.663Z,30.3
2022-09-09T09:32:35.690Z,30.4
2022-09-09T09:33:38.308Z,30.4
2022-09-09T09:34:40.264Z,30.5
2022-09-09T09:35:44.301Z,30.2
2022-09-09T09:36:47.052Z,30.3
2022-09-09T09:41:04.505Z,30.3
2022-09-09T09:42:07.055Z,30.5
2022-09-09T09:43:09.555Z,30.2
2022-09-09T09:44:11.767Z,30.3
2022-09-09T09:45:13.699Z,30.3
2022-09-09T09:46:17.806Z,30.2
2022-09-09T09:47:21.427Z,30.3
2022-09-09T09:48:24.101Z,30.3
2022-09-09T09:49:26.283Z,30.5
2022-09-09T09:50:28.489Z,30.3
2022-09-09T09:51:30.442Z,30.5
2022-09-09T09:52:32.650Z,30.2
2022-09-09T09:53:35.222Z,30.6
2022-09-09T09:54:36.776Z,30.2
2022-09-09T09:55:39.304Z,30.4
2022-09-09T09:56:41.837Z,30.5
2022-09-09T09:57:44.528Z,30.4
2022-09-09T09:58:46.557Z,30.5
2022-09-09T09:59:49.050Z,30.6
2022-09-09T10:00:50.952Z,30.6
2022-09-09T10:01:52.999Z,30.4
2022-09-09T10:02:55.600Z,30.3
2022-09-09T10:03:57.857Z,30.3
2022-09-09T10:05:00.409Z,30.4
2022-09-09T10:06:03.059Z,30.4
2022-09-09T10:07:05.253Z,30.3
2022-09-09T10:08:07.201Z,30.4
2022-09-09T10:09:09.426Z,30.3
2022-09-09T10:10:11.940Z,30.4
2022-09-09T10:11:14.626Z,30.5
2022-09-09T10:12:16.904Z,30.4
2022-09-09T10:13:18.931Z,30.4
2022-09-09T10:14:21.423Z,30.4
2022-09-09T10:15:23.615Z,30.4
2022-09-09T10:16:26.131Z,30.2
2022-09-09T10:17:28.350Z,30.3
2022-09-09T10:18:30.563Z,30.3
2022-09-09T10:19:33.226Z,30.3
2022-09-09T10:20:35.438Z,30.4
2022-09-09T10:21:37.899Z,30.2
2022-09-09T10:22:40.422Z,30.3
2022-09-09T10:23:42.649Z,30.4
2022-09-09T10:24:45.203Z,30.4
2022-09-09T10:25:47.733Z,30.2
2022-09-09T10:26:50.213Z,30.4
2022-09-09T10:27:57.111Z,30.3
2022-09-09T10:28:57.680Z,30.4
2022-09-09T10:30:00.344Z,30.3
2022-09-09T10:31:02.640Z,30.3
2022-09-09T10:32:05.417Z,30.2
2022-09-09T10:33:07.355Z,30.2
2022-09-09T10:34:10.376Z,30.1
2022-09-09T10:35:12.620Z,30.2
2022-09-09T10:36:15.097Z,30.3
2022-09-09T10:37:17.310Z,30.3
2022-09-09T10:38:19.542Z,30.3
2022-09-09T10:39:21.754Z,30.3
2022-09-09T10:40:24.282Z,30.2
2022-09-09T10:41:26.882Z,30.3
2022-09-09T10:42:29.135Z,30.2
2022-09-09T10:43:31.612Z,30.3
2022-09-09T10:44:34.076Z,30.4
2022-09-09T10:45:36.591Z,30.5
2022-09-09T10:46:38.277Z,30.2
2022-09-09T10:47:40.590Z,30.3
2022-09-09T10:48:42.773Z,30.3
2022-09-09T10:49:44.962Z,30.3
2022-09-09T10:51:04.502Z,30.4
2022-09-09T10:51:52.437Z,30.3
2022-09-09T10:52:54.936Z,30.4
2022-09-09T10:53:57.166Z,30.4
2022-09-09T10:54:59.095Z,30.4
2022-09-09T10:56:01.606Z,30.3
2022-09-09T10:57:03.527Z,30.2
2022-09-09T10:58:05.719Z,30.2
2022-09-09T10:59:08.212Z,30.5
2022-09-09T11:00:10.692Z,30.4
2022-09-09T11:01:13.256Z,30.5
2022-09-09T11:02:15.445Z,30.1
2022-09-09T11:03:17.360Z,30.2
2022-09-09T11:04:19.883Z,30.4
2022-09-09T11:05:22.301Z,30.3
2022-09-09T11:06:24.835Z,30.3
2022-09-09T11:07:27.609Z,30.4
2022-09-09T11:08:30.096Z,30.4
2022-09-09T11:09:32.612Z,30.6
2022-09-09T11:10:34.818Z,30.4
2022-09-09T11:11:37.041Z,30.4
2022-09-09T11:12:39.251Z,30.5
2022-09-09T11:13:41.461Z,30.4
2022-09-09T11:14:43.950Z,30.3
2022-09-09T11:15:46.417Z,30.3
2022-09-09T11:16:49.013Z,30.1
2022-09-09T11:17:51.572Z,30.3
2022-09-09T11:18:53.778Z,30.4
2022-09-09T11:19:56.247Z,30.3
2022-09-09T11:20:58.470Z,30.3
2022-09-09T11:22:00.681Z,30.5
2022-09-09T11:23:02.875Z,30.3
2022-09-09T11:24:05.413Z,30.3
2022-09-09T11:25:07.921Z,30.3
2022-09-09T11:26:10.605Z,30.4
2022-09-09T11:27:12.942Z,30.4
2022-09-09T11:28:15.502Z,30.3
2022-09-09T11:29:17.691Z,30.3
2022-09-09T11:30:38.015Z,30.4
2022-09-09T11:31:25.663Z,30.4
2022-09-09T11:32:28.415Z,30.3
2022-09-09T11:33:30.888Z,30.3
2022-09-09T11:34:34.426Z,30.4
2022-09-09T11:35:37.510Z,30.5
2022-09-09T11:36:40.599Z,30.4
2022-09-09T11:37:43.148Z,30.5
2022-09-09T11:38:45.634Z,30.4
2022-09-09T11:39:48.118Z,30.4
2022-09-09T11:40:50.642Z,30.4
2022-09-09T11:41:52.821Z,30.5
2022-09-09T11:42:54.773Z,30.2
2022-09-09T11:43:56.994Z,30.4
2022-09-09T11:44:59.220Z,30.3
2022-09-09T11:46:01.639Z,30.5
2022-09-09T11:47:04.408Z,30.2
2022-09-09T11:48:07.041Z,30.4
2022-09-09T11:49:09.307Z,30.4
2022-09-09T11:50:11.512Z,30.4
2022-09-09T11:51:17.045Z,30.5
2022-09-09T11:52:18.984Z,30.2
2022-09-09T11:53:21.476Z,30.1
2022-09-09T11:54:23.961Z,30.5
2022-09-09T11:55:26.448Z,30.5
2022-09-09T11:56:28.967Z,30.3
2022-09-09T11:57:31.161Z,30.3
2022-09-09T11:59:51.894Z,30.3
2022-09-09T12:00:54.105Z,30.5
2022-09-09T12:01:56.082Z,30.3
2022-09-09T12:02:59.280Z,30.5
2022-09-09T12:04:01.879Z,30.5
2022-09-09T12:05:04.354Z,30.5
2022-09-09T12:06:07.055Z,30.4
2022-09-09T12:07:09.604Z,30.3
2022-09-09T12:08:11.867Z,30.3
2022-09-09T12:09:14.382Z,30.3
2022-09-09T12:10:16.879Z,30.4
2022-09-09T12:11:18.807Z,30.4
2022-09-09T12:12:21.019Z,30.4
2022-09-09T12:13:22.979Z,30.4
2022-09-09T12:14:25.475Z,30.5
2022-09-09T12:15:27.967Z,30.2
2022-09-09T12:16:30.222Z,30.2
2022-09-09T12:17:33.072Z,30.3
2022-09-09T12:18:35.377Z,30.3
2022-09-09T12:19:37.816Z,30.6
2022-09-09T12:20:40.237Z,30.5
2022-09-09T12:21:41.949Z,30.4
2022-09-09T12:22:44.175Z,30.5
2022-09-09T12:23:46.666Z,30.2
2022-09-09T12:24:48.642Z,30.4
2022-09-09T12:25:50.577Z,30.5
2022-09-09T12:26:52.792Z,30.4
2022-09-09T12:27:54.739Z,30.5
2022-09-09T12:28:57.253Z,30.5
2022-09-09T12:29:59.792Z,30.2
2022-09-09T12:31:02.388Z,30.3
2022-09-09T12:32:05.448Z,30.4
2022-09-09T12:33:07.939Z,30.4
2022-09-09T12:34:10.176Z,30.5
2022-09-09T12:35:12.784Z,30.3
2022-09-09T12:36:15.262Z,30.5
2022-09-09T12:37:17.472Z,30.3
2022-09-09T12:38:20.939Z,30.3
2022-09-09T12:39:24.072Z,30.4
2022-09-09T12:40:27.082Z,30.5
2022-09-09T12:41:29.290Z,30.3
2022-09-09T12:42:31.505Z,30.6
2022-09-09T12:43:38.634Z,30.5
2022-09-09T12:44:41.147Z,30.4
2022-09-09T12:45:43.390Z,30.4
2022-09-09T12:46:45.890Z,30.2
2022-09-09T12:47:49.316Z,30.2
2022-09-09T12:48:51.796Z,30.4
2022-09-09T12:49:53.725Z,30.4
2022-09-09T12:50:56.275Z,30.2
2022-09-09T12:51:58.240Z,30.2
2022-09-09T12:53:00.721Z,30.4
2022-09-09T12:54:03.209Z,30.4
2022-09-09T12:55:05.139Z,30.4
2022-09-09T12:56:07.369Z,30.4
2022-09-09T12:57:09.890Z,30.4
2022-09-09T12:58:11.816Z,30.2
2022-09-09T12:59:14.030Z,30.4
2022-09-09T13:00:16.720Z,30.3
2022-09-09T13:01:19.434Z,30.3
2022-09-09T13:02:23.414Z,30.5
2022-09-09T13:03:26.096Z,30.5
2022-09-09T13:04:28.286Z,30.2
2022-09-09T13:05:30.219Z,30.4
2022-09-09T13:06:32.766Z,30.3
2022-09-09T13:07:34.682Z,30.4
2022-09-09T13:08:37.238Z,30.3
2022-09-09T13:09:39.414Z,30.3
2022-09-09T13:11:00.454Z,30.2
2022-09-09T13:11:46.910Z,30.4
2022-09-09T13:12:49.389Z,30.5
2022-09-09T13:13:51.875Z,30.3
2022-09-09T13:14:54.080Z,30.3
2022-09-09T13:15:56.012Z,30.4
2022-09-09T13:16:58.613Z,30.2
2022-09-09T13:18:01.443Z,30.3
2022-09-09T13:19:03.933Z,30.5
2022-09-09T13:20:05.861Z,30.3
2022-09-09T13:21:07.789Z,30.4
2022-09-09T13:22:10.317Z,30.4
2022-09-09T13:23:12.568Z,30.4
2022-09-09T13:24:14.765Z,30.4
2022-09-09T13:25:16.949Z,30.3
2022-09-09T13:26:19.134Z,30.1
2022-09-09T13:27:21.339Z,30.3
2022-09-09T13:28:23.534Z,30.5
2022-09-09T13:29:25.703Z,30.2
2022-09-09T13:30:27.665Z,30.2
2022-09-09T13:31:30.387Z,30.3
2022-09-09T13:32:32.889Z,30.2
2022-09-09T13:33:35.468Z,30.3
2022-09-09T13:34:38.547Z,30.5
2022-09-09T13:35:41.011Z,30.4
2022-09-09T13:36:43.506Z,30.4
2022-09-09T13:37:46.066Z,30.6
2022-09-09T13:38:48.630Z,30.6
2022-09-09T13:39:51.126Z,30.4
2022-09-09T13:40:53.202Z,30.3
2022-09-09T13:41:55.674Z,30.5
2022-09-09T13:42:57.907Z,30.4
2022-09-09T13:44:00.096Z,30.4
2022-09-09T13:45:02.570Z,30.4
2022-09-09T13:46:04.829Z,30.3
2022-09-09T13:47:10.430Z,30.4
2022-09-09T13:48:12.568Z,30.4
2022-09-09T13:49:15.060Z,30.5
2022-09-09T13:50:17.535Z,30.3
2022-09-09T13:51:20.010Z,30.2
2022-09-09T13:52:22.494Z,30.4
2022-09-09T13:53:25.034Z,30.2
2022-09-09T13:54:27.244Z,30.3
2022-09-09T13:55:29.716Z,30.3
2022-09-09T13:56:32.214Z,30.3
2022-09-09T13:57:34.692Z,30.2
2022-09-09T13:58:37.189Z,30.5